createdAt,value
2019-04-25T00:00:48.915Z,49.70
2019-04-25T00:03:22.294Z,49.80
2019-04-25T00:05:52.300Z,49.60
2019-04-25T00:08:21.492Z,49.90
2019-04-25T00:10:51.638Z,50.30
2019-04-25T00:13:21.691Z,50.00
2019-04-25T00:15:51.813Z,50.00
2019-04-25T00:18:23.190Z,50.00
2019-04-25T00:20:52.301Z,49.90
2019-04-25T00:23:22.088Z,50.40
2019-04-25T00:25:55.229Z,50.30
2019-04-25T00:28:23.694Z,50.20
2019-04-25T00:30:52.952Z,50.10
2019-04-25T00:33:21.651Z,50.00
2019-04-25T00:35:51.340Z,50.20
2019-04-25T00:38:22.106Z,50.10
2019-04-25T00:40:52.044Z,49.90
2019-04-25T00:43:21.459Z,49.80
2019-04-25T00:45:51.344Z,50.00
2019-04-25T00:48:20.094Z,50.10
2019-04-25T00:50:48.506Z,50.20
2019-04-25T00:53:16.926Z,50.40
2019-04-25T00:55:45.368Z,50.50
2019-04-25T00:58:15.442Z,50.70
2019-04-25T01:00:45.499Z,50.70
2019-04-25T01:03:15.574Z,50.60
2019-04-25T01:05:44.731Z,50.40
2019-04-25T01:08:14.109Z,50.20
2019-04-25T01:10:42.546Z,50.20
2019-04-25T01:13:11.246Z,50.10
2019-04-25T01:15:39.774Z,50.20
2019-04-25T01:18:08.682Z,50.10
2019-04-25T01:20:37.094Z,50.20
2019-04-25T01:23:05.501Z,50.40
2019-04-25T01:25:41.072Z,50.70
2019-04-25T01:28:03.998Z,50.60
2019-04-25T01:30:33.959Z,50.60
2019-04-25T01:33:03.501Z,50.70
2019-04-25T01:35:37.006Z,51.20
2019-04-25T01:38:15.694Z,51.20
2019-04-25T01:40:45.752Z,51.70
2019-04-25T01:43:15.806Z,50.90
2019-04-25T01:45:44.319Z,51.00
2019-04-25T01:48:13.611Z,51.10
2019-04-25T01:50:43.746Z,51.10
2019-04-25T01:53:12.357Z,51.20
2019-04-25T01:55:53.049Z,51.30
2019-04-25T01:58:10.826Z,51.10
2019-04-25T02:00:47.018Z,51.10
2019-04-25T02:03:15.837Z,51.00
2019-04-25T02:05:44.223Z,51.10
2019-04-25T02:08:14.319Z,51.10
2019-04-25T02:10:44.394Z,51.30
2019-04-25T02:13:20.472Z,52.20
2019-04-25T02:15:48.889Z,52.40
2019-04-25T02:18:17.562Z,52.50
2019-04-25T02:20:46.013Z,53.10
2019-04-25T02:23:14.456Z,53.70
2019-04-25T02:25:44.286Z,53.40
2019-04-25T02:28:13.961Z,52.90
2019-04-25T02:30:45.357Z,52.90
2019-04-25T02:33:14.306Z,53.20
2019-04-25T02:35:46.540Z,53.20
2019-04-25T02:38:14.756Z,53.10
2019-04-25T02:40:45.436Z,53.30
2019-04-25T02:43:14.396Z,53.30
2019-04-25T02:45:55.660Z,53.40
2019-04-25T02:48:28.887Z,53.60
2019-04-25T02:51:07.238Z,53.80
2019-04-25T02:53:37.566Z,53.70
2019-04-25T02:56:25.738Z,53.70
2019-04-25T02:58:36.446Z,54.20
2019-04-25T03:01:16.591Z,53.70
2019-04-25T03:03:37.104Z,53.70
2019-04-25T03:06:08.955Z,53.70
2019-04-25T03:08:36.309Z,53.80
2019-04-25T03:11:07.383Z,54.80
2019-04-25T03:13:35.633Z,54.60
2019-04-25T03:16:07.700Z,54.60
2019-04-25T03:18:36.791Z,54.50
2019-04-25T03:21:14.141Z,54.40
2019-04-25T03:23:42.753Z,54.50
2019-04-25T03:26:10.853Z,54.50
2019-04-25T03:28:39.585Z,54.50
2019-04-25T03:31:15.290Z,54.50
2019-04-25T03:33:38.840Z,54.60
2019-04-25T03:36:07.876Z,54.60
2019-04-25T03:38:36.666Z,54.90
2019-04-25T03:41:06.183Z,54.90
2019-04-25T03:43:35.793Z,55.60
2019-04-25T03:46:05.889Z,55.30
2019-04-25T03:48:36.798Z,55.30
2019-04-25T03:51:05.878Z,54.90
2019-04-25T03:53:35.365Z,55.20
2019-04-25T03:56:05.830Z,54.90
2019-04-25T03:58:34.397Z,55.20
2019-04-25T04:01:05.934Z,55.40
2019-04-25T04:03:33.910Z,54.80
2019-04-25T04:06:04.369Z,54.90
2019-04-25T04:08:34.285Z,55.20
2019-04-25T04:11:05.367Z,56.30
2019-04-25T04:13:34.279Z,56.90
2019-04-25T04:16:03.421Z,56.50
2019-04-25T04:18:34.738Z,56.30
2019-04-25T04:21:23.597Z,56.20
2019-04-25T04:23:57.241Z,56.40
2019-04-25T04:26:26.065Z,56.10
2019-04-25T04:28:54.807Z,56.00
2019-04-25T04:31:23.588Z,56.10
2019-04-25T04:33:53.081Z,56.50
2019-04-25T04:36:22.000Z,56.30
2019-04-25T04:38:50.735Z,55.90
2019-04-25T04:41:19.364Z,56.10
2019-04-25T04:43:48.324Z,56.30
2019-04-25T04:46:18.513Z,56.20
2019-04-25T04:48:47.616Z,56.30
2019-04-25T04:51:16.887Z,57.80
2019-04-25T04:53:45.376Z,55.60
2019-04-25T04:56:15.092Z,53.20
2019-04-25T04:58:44.028Z,51.20
2019-04-25T05:01:14.175Z,50.00
2019-04-25T05:03:54.054Z,48.20
2019-04-25T05:06:26.863Z,46.60
2019-04-25T05:08:56.926Z,44.90
2019-04-25T05:11:25.509Z,43.40
2019-04-25T05:13:54.201Z,41.60
2019-04-25T05:16:23.863Z,40.60
2019-04-25T05:18:55.277Z,39.30
2019-04-25T05:21:22.632Z,38.60
2019-04-25T05:23:51.101Z,39.40
2019-04-25T05:26:19.542Z,40.40
2019-04-25T05:28:47.964Z,41.40
2019-04-25T05:31:18.164Z,42.10
2019-04-25T05:33:46.649Z,42.40
2019-04-25T05:36:17.165Z,42.90
2019-04-25T05:38:45.198Z,43.20
2019-04-25T05:41:16.118Z,43.60
2019-04-25T05:43:45.398Z,43.90
2019-04-25T05:46:15.261Z,44.20
2019-04-25T05:48:43.879Z,44.40
2019-04-25T05:51:13.642Z,44.50
2019-04-25T05:53:43.345Z,44.60
2019-04-25T05:56:11.879Z,44.90
2019-04-25T05:58:40.281Z,45.00
2019-04-25T06:01:08.703Z,45.30
2019-04-25T06:03:37.125Z,45.60
2019-04-25T06:06:05.553Z,45.60
2019-04-25T06:08:35.610Z,45.90
2019-04-25T06:11:11.532Z,46.00
2019-04-25T06:13:47.293Z,46.20
2019-04-25T06:16:18.445Z,47.10
2019-04-25T06:19:13.262Z,47.00
2019-04-25T06:21:35.021Z,47.00
2019-04-25T06:24:17.044Z,48.00
2019-04-25T06:26:50.500Z,48.00
2019-04-25T06:29:19.707Z,48.40
2019-04-25T06:31:48.858Z,48.30
2019-04-25T06:34:17.269Z,48.10
2019-04-25T06:36:45.684Z,47.80
2019-04-25T06:39:14.241Z,47.70
2019-04-25T06:41:44.142Z,48.10
2019-04-25T06:44:15.316Z,47.70
2019-04-25T06:47:03.280Z,47.50
2019-04-25T06:49:39.605Z,47.60
2019-04-25T06:52:08.031Z,47.50
2019-04-25T06:54:36.438Z,48.00
2019-04-25T06:57:04.886Z,47.90
2019-04-25T06:59:34.439Z,46.30
2019-04-25T07:02:04.246Z,45.20
2019-04-25T07:04:34.548Z,44.60
2019-04-25T07:07:10.579Z,43.70
2019-04-25T07:09:34.932Z,43.20
2019-04-25T07:12:03.683Z,43.00
2019-04-25T07:14:33.830Z,42.80
2019-04-25T07:17:02.206Z,42.20
2019-04-25T07:19:30.631Z,41.80
2019-04-25T07:21:59.071Z,42.20
2019-04-25T07:24:27.486Z,41.40
2019-04-25T07:27:14.062Z,40.80
2019-04-25T07:29:53.890Z,40.20
2019-04-25T07:32:29.656Z,40.10
2019-04-25T07:34:56.886Z,38.30
2019-04-25T07:37:26.030Z,38.50
2019-04-25T07:39:55.364Z,38.60
2019-04-25T07:42:23.993Z,37.90
2019-04-25T07:44:53.473Z,38.10
2019-04-25T07:47:24.126Z,38.10
2019-04-25T07:49:54.099Z,37.50
2019-04-25T07:52:23.382Z,37.70
2019-04-25T07:54:51.965Z,37.20
2019-04-25T07:57:20.366Z,37.30
2019-04-25T07:59:51.530Z,36.50
2019-04-25T08:02:18.935Z,36.40
2019-04-25T08:04:47.358Z,35.80
2019-04-25T08:07:15.771Z,36.20
2019-04-25T08:09:44.392Z,35.90
2019-04-25T08:12:13.304Z,35.20
2019-04-25T08:14:46.398Z,34.90
2019-04-25T08:17:31.515Z,35.10
2019-04-25T08:19:59.932Z,35.20
2019-04-25T08:22:28.356Z,35.00
2019-04-25T08:24:56.806Z,34.90
2019-04-25T08:27:25.234Z,34.60
2019-04-25T08:29:54.218Z,34.70
2019-04-25T08:32:23.806Z,34.40
2019-04-25T08:34:54.205Z,34.90
2019-04-25T08:37:24.045Z,33.50
2019-04-25T08:39:53.922Z,33.90
2019-04-25T08:42:24.166Z,34.40
2019-04-25T08:44:53.439Z,35.00
2019-04-25T08:47:22.007Z,34.30
2019-04-25T08:50:01.176Z,33.50
2019-04-25T08:52:29.695Z,34.10
2019-04-25T08:54:59.751Z,33.60
2019-04-25T08:57:48.207Z,33.00
2019-04-25T09:00:18.334Z,32.60
2019-04-25T09:02:51.757Z,33.00
2019-04-25T09:05:24.820Z,33.60
2019-04-25T09:07:54.393Z,32.40
2019-04-25T09:10:23.743Z,33.70
2019-04-25T09:12:53.701Z,33.00
2019-04-25T09:15:23.992Z,32.30
2019-04-25T09:17:54.305Z,32.20
2019-04-25T09:20:23.551Z,32.00
2019-04-25T09:22:52.108Z,32.60
2019-04-25T09:25:23.844Z,31.80
2019-04-25T09:27:54.180Z,32.10
2019-04-25T09:30:24.056Z,31.90
2019-04-25T09:32:53.427Z,31.40
2019-04-25T09:35:23.483Z,31.00
2019-04-25T09:37:53.489Z,31.50
2019-04-25T09:40:23.842Z,32.30
2019-04-25T09:42:53.659Z,31.70
2019-04-25T09:45:26.180Z,31.20
2019-04-25T09:47:58.294Z,30.30
2019-04-25T09:50:34.230Z,29.90
2019-04-25T09:53:02.651Z,30.40
2019-04-25T09:55:34.039Z,29.80
2019-04-25T09:58:04.271Z,29.40
2019-04-25T10:00:34.328Z,30.20
2019-04-25T10:03:04.514Z,30.30
2019-04-25T10:05:33.939Z,29.90
2019-04-25T10:08:03.390Z,29.50
2019-04-25T10:10:31.990Z,29.70
2019-04-25T10:13:00.407Z,29.90
2019-04-25T10:15:47.875Z,30.60
2019-04-25T10:18:16.623Z,30.70
2019-04-25T10:20:46.330Z,30.40
2019-04-25T10:23:15.679Z,30.90
2019-04-25T10:25:45.119Z,30.60
2019-04-25T10:28:13.599Z,29.80
2019-04-25T10:30:42.900Z,30.40
2019-04-25T10:33:11.532Z,30.00
2019-04-25T10:35:48.108Z,29.70
2019-04-25T10:38:10.027Z,30.00
2019-04-25T10:40:39.326Z,30.00
2019-04-25T10:43:07.965Z,30.70
2019-04-25T10:45:36.702Z,29.40
2019-04-25T10:48:05.086Z,30.10
2019-04-25T10:50:34.082Z,29.60
2019-04-25T10:53:04.054Z,29.80
2019-04-25T10:55:32.694Z,29.60
2019-04-25T10:58:01.110Z,29.70
2019-04-25T11:00:34.426Z,29.30
2019-04-25T11:03:19.416Z,29.80
2019-04-25T11:05:47.940Z,29.30
2019-04-25T11:08:16.930Z,29.70
2019-04-25T11:10:47.464Z,29.80
2019-04-25T11:13:15.471Z,28.60
2019-04-25T11:15:44.884Z,29.00
2019-04-25T11:18:15.234Z,28.70
2019-04-25T11:20:44.683Z,29.10
2019-04-25T11:23:13.976Z,29.10
2019-04-25T11:25:43.427Z,29.40
2019-04-25T11:28:14.360Z,29.60
2019-04-25T11:30:45.231Z,29.60
2019-04-25T11:33:14.332Z,30.10
2019-04-25T11:35:44.181Z,29.70
2019-04-25T11:38:14.621Z,29.80
2019-04-25T11:40:47.845Z,29.90
2019-04-25T11:43:14.776Z,29.90
2019-04-25T11:45:43.242Z,30.40
2019-04-25T11:48:13.386Z,30.00
2019-04-25T11:50:44.091Z,30.40
2019-04-25T11:53:12.060Z,29.40
2019-04-25T11:55:40.470Z,29.80
2019-04-25T11:58:08.941Z,29.80
2019-04-25T12:00:37.428Z,29.80
2019-04-25T12:03:06.307Z,29.50
2019-04-25T12:05:34.755Z,29.30
2019-04-25T12:08:04.100Z,28.90
2019-04-25T12:10:34.494Z,28.60
2019-04-25T12:13:03.158Z,29.20
2019-04-25T12:15:33.360Z,28.70
2019-04-25T12:18:01.883Z,29.10
2019-04-25T12:20:30.390Z,28.70
2019-04-25T12:23:08.470Z,28.20
2019-04-25T12:25:28.878Z,28.10
2019-04-25T12:27:57.335Z,28.70
2019-04-25T12:30:37.346Z,28.90
2019-04-25T12:32:56.874Z,28.20
2019-04-25T12:35:25.363Z,27.90
2019-04-25T12:37:55.125Z,27.70
2019-04-25T12:40:24.201Z,27.40
2019-04-25T12:42:52.839Z,27.60
2019-04-25T12:45:24.127Z,27.40
2019-04-25T12:47:57.291Z,27.90
2019-04-25T12:50:24.708Z,27.60
2019-04-25T12:52:54.693Z,27.50
2019-04-25T12:55:23.939Z,28.20
2019-04-25T12:57:53.646Z,28.10
2019-04-25T13:00:24.404Z,27.60
2019-04-25T13:02:53.995Z,28.70
2019-04-25T13:05:24.316Z,28.70
2019-04-25T13:07:57.025Z,28.80
2019-04-25T13:10:23.653Z,28.50
2019-04-25T13:12:55.290Z,28.40
2019-04-25T13:15:25.265Z,29.00
2019-04-25T13:17:53.635Z,29.00
2019-04-25T13:20:22.141Z,29.00
2019-04-25T13:22:53.294Z,29.10
2019-04-25T13:25:24.294Z,27.20
2019-04-25T13:27:57.595Z,27.10
2019-04-25T13:30:43.847Z,26.90
2019-04-25T13:33:19.539Z,26.80
2019-04-25T13:35:49.611Z,26.10
2019-04-25T13:38:18.099Z,26.40
2019-04-25T13:40:46.555Z,26.40
2019-04-25T13:43:16.736Z,27.00
2019-04-25T13:45:45.135Z,27.20
2019-04-25T13:48:13.571Z,27.40
2019-04-25T13:50:41.987Z,27.70
2019-04-25T13:53:10.411Z,27.60
2019-04-25T13:55:38.843Z,27.60
2019-04-25T13:58:07.533Z,27.60
2019-04-25T14:00:36.415Z,27.00
2019-04-25T14:03:05.416Z,27.50
2019-04-25T14:05:35.189Z,27.80
2019-04-25T14:08:03.886Z,28.30
2019-04-25T14:10:32.794Z,27.50
2019-04-25T14:13:03.517Z,27.80
2019-04-25T14:15:32.851Z,28.10
2019-04-25T14:18:04.005Z,28.50
2019-04-25T14:20:36.822Z,28.70
2019-04-25T14:23:06.876Z,28.20
2019-04-25T14:25:35.873Z,28.50
2019-04-25T14:28:05.631Z,28.50
2019-04-25T14:30:34.750Z,28.50
2019-04-25T14:33:06.524Z,28.30
2019-04-25T14:35:34.898Z,28.00
2019-04-25T14:38:03.913Z,27.60
2019-04-25T14:40:33.234Z,27.60
2019-04-25T14:43:01.756Z,27.70
2019-04-25T14:45:41.546Z,27.40
2019-04-25T14:48:00.344Z,27.30
2019-04-25T14:50:29.857Z,27.60
2019-04-25T14:52:58.593Z,27.70
2019-04-25T14:55:40.925Z,27.80
2019-04-25T14:58:13.702Z,27.60
2019-04-25T15:00:43.832Z,27.80
2019-04-25T15:03:12.311Z,27.70
2019-04-25T15:05:42.514Z,28.00
2019-04-25T15:08:11.021Z,28.00
2019-04-25T15:10:39.571Z,27.90
2019-04-25T15:13:08.946Z,27.40
2019-04-25T15:15:37.363Z,27.90
2019-04-25T15:18:07.913Z,28.10
2019-04-25T15:20:36.323Z,28.00
2019-04-25T15:23:04.805Z,28.30
2019-04-25T15:25:33.269Z,28.20
2019-04-25T15:28:01.835Z,27.90
2019-04-25T15:30:31.906Z,28.40
2019-04-25T15:33:00.466Z,28.60
2019-04-25T15:35:33.326Z,28.70
2019-04-25T15:38:09.606Z,28.80
2019-04-25T15:40:42.719Z,28.20
2019-04-25T15:43:18.279Z,28.90
2019-04-25T15:45:53.947Z,28.50
2019-04-25T15:48:22.477Z,28.70
2019-04-25T15:50:51.133Z,28.80
2019-04-25T15:53:19.555Z,28.70
2019-04-25T15:55:47.965Z,29.30
2019-04-25T15:58:16.421Z,29.20
2019-04-25T16:00:44.851Z,29.60
2019-04-25T16:03:13.556Z,29.70
2019-04-25T16:05:42.006Z,29.70
2019-04-25T16:08:10.441Z,30.00
2019-04-25T16:10:38.947Z,30.00
2019-04-25T16:13:07.817Z,29.90
2019-04-25T16:15:36.234Z,30.00
2019-04-25T16:18:05.723Z,30.00
2019-04-25T16:20:34.491Z,30.20
2019-04-25T16:23:02.949Z,29.50
2019-04-25T16:25:31.371Z,29.70
2019-04-25T16:27:59.821Z,29.70
2019-04-25T16:30:29.986Z,29.80
2019-04-25T16:32:58.395Z,30.00
2019-04-25T16:35:26.842Z,30.00
2019-04-25T16:37:55.254Z,30.10
2019-04-25T16:40:23.675Z,30.30
2019-04-25T16:42:52.191Z,30.50
2019-04-25T16:45:20.694Z,30.60
2019-04-25T16:47:49.106Z,30.40
2019-04-25T16:50:18.312Z,30.50
2019-04-25T16:52:46.719Z,30.80
2019-04-25T16:55:15.405Z,31.20
2019-04-25T16:57:43.963Z,31.30
2019-04-25T17:00:30.892Z,31.10
2019-04-25T17:02:59.698Z,31.40
2019-04-25T17:05:28.486Z,31.40
2019-04-25T17:07:56.907Z,31.50
2019-04-25T17:10:25.347Z,32.10
2019-04-25T17:12:53.812Z,32.30
2019-04-25T17:15:26.421Z,32.40
2019-04-25T17:17:56.504Z,32.90
2019-04-25T17:20:26.551Z,32.90
2019-04-25T17:22:55.036Z,33.20
2019-04-25T17:25:24.163Z,33.70
2019-04-25T17:27:52.639Z,34.30
2019-04-25T17:30:21.038Z,33.80
2019-04-25T17:32:53.964Z,34.40
2019-04-25T17:35:25.775Z,34.10
2019-04-25T17:37:58.891Z,34.50
2019-04-25T17:40:29.015Z,34.80
2019-04-25T17:42:57.423Z,35.00
2019-04-25T17:45:27.501Z,35.20
2019-04-25T17:47:55.906Z,35.40
2019-04-25T17:50:24.389Z,35.20
2019-04-25T17:52:52.906Z,35.20
2019-04-25T17:55:21.370Z,35.30
2019-04-25T17:57:49.843Z,35.20
2019-04-25T18:00:38.343Z,35.20
2019-04-25T18:03:08.730Z,35.50
2019-04-25T18:05:37.133Z,36.00
2019-04-25T18:08:05.559Z,36.10
2019-04-25T18:10:36.165Z,36.00
2019-04-25T18:13:05.589Z,36.20
2019-04-25T18:15:47.741Z,36.30
2019-04-25T18:18:17.812Z,36.60
2019-04-25T18:20:46.645Z,36.40
2019-04-25T18:23:19.723Z,36.60
2019-04-25T18:26:05.162Z,36.80
2019-04-25T18:28:41.554Z,36.70
2019-04-25T18:31:10.093Z,37.10
2019-04-25T18:33:39.345Z,37.30
2019-04-25T18:36:09.546Z,37.70
2019-04-25T18:38:57.756Z,37.70
2019-04-25T18:41:27.834Z,37.80
2019-04-25T18:43:57.892Z,37.80
2019-04-25T18:46:33.715Z,37.90
2019-04-25T18:49:02.130Z,37.90
2019-04-25T18:51:30.546Z,37.90
2019-04-25T18:54:00.619Z,38.20
2019-04-25T18:56:37.716Z,38.50
2019-04-25T18:59:24.428Z,38.70
2019-04-25T19:02:00.647Z,38.40
2019-04-25T19:04:33.675Z,38.50
2019-04-25T19:07:02.091Z,38.80
2019-04-25T19:09:30.512Z,38.80
2019-04-25T19:11:58.983Z,38.60
2019-04-25T19:14:27.438Z,39.00
2019-04-25T19:16:55.822Z,39.20
2019-04-25T19:19:24.271Z,39.10
2019-04-25T19:21:53.090Z,39.00
2019-04-25T19:24:21.500Z,39.00
2019-04-25T19:26:49.947Z,39.10
2019-04-25T19:29:18.375Z,39.00
2019-04-25T19:31:46.786Z,39.50
2019-04-25T19:34:15.219Z,39.80
2019-04-25T19:36:43.634Z,40.10
2019-04-25T19:39:12.310Z,40.20
2019-04-25T19:41:42.958Z,40.30
2019-04-25T19:44:13.154Z,40.20
2019-04-25T19:46:47.089Z,40.40
2019-04-25T19:49:15.510Z,40.50
2019-04-25T19:51:43.931Z,40.70
2019-04-25T19:54:12.672Z,40.70
2019-04-25T19:56:42.370Z,40.70
2019-04-25T19:59:11.138Z,40.90
2019-04-25T20:01:39.555Z,41.00
2019-04-25T20:04:12.367Z,41.10
2019-04-25T20:06:58.612Z,41.10
2019-04-25T20:09:34.527Z,41.20
2019-04-25T20:12:03.819Z,41.40
2019-04-25T20:14:32.223Z,41.60
2019-04-25T20:17:00.683Z,41.90
2019-04-25T20:19:29.095Z,41.80
2019-04-25T20:21:57.515Z,41.60
2019-04-25T20:24:25.956Z,41.60
2019-04-25T20:26:54.610Z,41.50
2019-04-25T20:29:23.182Z,41.50
2019-04-25T20:31:52.720Z,41.50
2019-04-25T20:34:21.244Z,41.40
2019-04-25T20:36:49.672Z,41.50
2019-04-25T20:39:18.110Z,41.50
2019-04-25T20:41:47.069Z,41.50
2019-04-25T20:44:16.440Z,42.20
2019-04-25T20:46:46.619Z,41.50
2019-04-25T20:49:15.014Z,41.70
2019-04-25T20:51:43.426Z,41.70
2019-04-25T20:54:11.871Z,41.80
2019-04-25T20:56:40.290Z,41.80
2019-04-25T20:59:08.707Z,41.50
2019-04-25T21:01:37.318Z,41.40
2019-04-25T21:04:12.969Z,41.90
2019-04-25T21:06:39.076Z,41.30
2019-04-25T21:09:07.593Z,41.10
2019-04-25T21:11:35.999Z,41.10
2019-04-25T21:14:06.046Z,41.40
2019-04-25T21:16:48.247Z,41.60
2019-04-25T21:19:27.095Z,41.40
2019-04-25T21:21:56.399Z,41.50
2019-04-25T21:24:24.979Z,41.60
2019-04-25T21:26:53.391Z,41.50
2019-04-25T21:29:21.831Z,41.50
2019-04-25T21:31:51.162Z,41.50
2019-04-25T21:34:25.770Z,41.50
2019-04-25T21:36:49.853Z,41.40
2019-04-25T21:39:22.828Z,41.30
2019-04-25T21:41:55.848Z,41.10
2019-04-25T21:44:24.517Z,41.00
2019-04-25T21:46:53.649Z,40.80
2019-04-25T21:49:25.221Z,40.70
2019-04-25T21:51:54.148Z,41.10
2019-04-25T21:54:23.557Z,41.00
2019-04-25T21:56:53.302Z,40.80
2019-04-25T21:59:22.260Z,41.00
2019-04-25T22:01:50.740Z,41.30
2019-04-25T22:04:19.181Z,41.20
2019-04-25T22:06:47.925Z,41.70
2019-04-25T22:09:18.378Z,41.10
2019-04-25T22:11:47.122Z,41.20
2019-04-25T22:14:16.210Z,41.30
2019-04-25T22:16:44.930Z,41.30
2019-04-25T22:19:13.690Z,41.40
2019-04-25T22:21:42.550Z,41.30
2019-04-25T22:24:14.431Z,41.50
2019-04-25T22:26:41.050Z,41.50
2019-04-25T22:29:09.788Z,41.70
2019-04-25T22:31:48.894Z,41.20
2019-04-25T22:34:27.977Z,41.30
2019-04-25T22:36:56.417Z,41.40
2019-04-25T22:39:25.103Z,41.50
2019-04-25T22:41:53.716Z,41.60
2019-04-25T22:44:22.722Z,41.80
2019-04-25T22:46:51.659Z,42.40
2019-04-25T22:49:20.020Z,42.50
2019-04-25T22:51:48.546Z,42.40
2019-04-25T22:54:17.274Z,42.30
2019-04-25T22:56:45.681Z,42.20
2019-04-25T22:59:14.516Z,42.40
2019-04-25T23:01:54.037Z,42.60
2019-04-25T23:04:27.126Z,42.80
2019-04-25T23:06:55.538Z,43.10
2019-04-25T23:09:23.961Z,43.10
2019-04-25T23:11:52.709Z,43.00
2019-04-25T23:14:21.435Z,42.60
2019-04-25T23:16:49.841Z,42.10
2019-04-25T23:19:18.313Z,42.00
2019-04-25T23:21:47.072Z,42.50
2019-04-25T23:24:17.091Z,41.90
2019-04-25T23:27:02.359Z,41.80
2019-04-25T23:29:30.769Z,41.90
2019-04-25T23:31:59.186Z,41.80
2019-04-25T23:34:27.918Z,41.80
2019-04-25T23:36:56.398Z,41.80
2019-04-25T23:39:25.130Z,41.90
2019-04-25T23:41:53.574Z,42.20
2019-04-25T23:44:21.989Z,42.10
2019-04-25T23:46:50.720Z,42.60
2019-04-25T23:49:19.156Z,42.60
2019-04-25T23:51:47.865Z,41.90
2019-04-25T23:54:17.123Z,42.00
2019-04-25T23:56:45.729Z,42.10
2019-04-25T23:59:14.441Z,42.00
